LNI641 WAAA-WAHI
Flight info
| Callsign | LNI641 |
|---|---|
| Flight time | 1h 33m |
| Altitude | 34000 |
| Route | BIMAK W52 ANY W17N SO |
| Aircraft | B738/M-SDE2E3FGHIRWXY/LB1 |
Departure
| Time | 2026-04-30 09:23 |
|---|---|
| Airport | Sultan Hasanuddin International Airport (WAAA) |
Arrival
| Time | 2026-04-30 10:57 |
|---|---|
| Airport | Yogyakarta International Airport (WAHI) |
| Time | Latitude | Longitude | Altitude | Speed | Heading |
|---|---|---|---|---|---|
| 2026-04-30 09:11 | -5.07751 | 119.54957 | 64 ft | 0 kts | 120° |
| 2026-04-30 09:13 | -5.07749 | 119.54953 | 64 ft | 2 kts | 120° |
| 2026-04-30 09:14 | -5.07741 | 119.54940 | 64 ft | 2 kts | 120° |
| 2026-04-30 09:14 | -5.07734 | 119.54927 | 64 ft | 2 kts | 120° |
| 2026-04-30 09:14 | -5.07726 | 119.54915 | 64 ft | 0 kts | 120° |
| 2026-04-30 09:14 | -5.07722 | 119.54905 | 64 ft | 2 kts | 98° |
| 2026-04-30 09:15 | -5.07724 | 119.54890 | 64 ft | 2 kts | 63° |
| 2026-04-30 09:15 | -5.07732 | 119.54881 | 64 ft | 0 kts | 33° |
| 2026-04-30 09:15 | -5.07737 | 119.54878 | 64 ft | 1 kts | 28° |
| 2026-04-30 09:15 | -5.07739 | 119.54877 | 64 ft | 0 kts | 29° |
| 2026-04-30 09:17 | -5.07736 | 119.54878 | 64 ft | 1 kts | 29° |
| 2026-04-30 09:17 | -5.07725 | 119.54884 | 64 ft | 2 kts | 29° |
| 2026-04-30 09:18 | -5.07701 | 119.54897 | 64 ft | 5 kts | 29° |
| 2026-04-30 09:18 | -5.07662 | 119.54919 | 64 ft | 7 kts | 30° |
| 2026-04-30 09:18 | -5.07609 | 119.54952 | 64 ft | 10 kts | 36° |
| 2026-04-30 09:18 | -5.07584 | 119.55022 | 64 ft | 12 kts | 121° |
| 2026-04-30 09:19 | -5.07618 | 119.55104 | 64 ft | 13 kts | 81° |
| 2026-04-30 09:19 | -5.07545 | 119.55172 | 64 ft | 16 kts | 28° |
| 2026-04-30 09:19 | -5.07438 | 119.55231 | 65 ft | 18 kts | 30° |
| 2026-04-30 09:19 | -5.07318 | 119.55303 | 65 ft | 21 kts | 31° |
| 2026-04-30 09:20 | -5.07181 | 119.55383 | 65 ft | 23 kts | 29° |
| 2026-04-30 09:20 | -5.07034 | 119.55467 | 65 ft | 24 kts | 30° |
| 2026-04-30 09:20 | -5.06903 | 119.55544 | 65 ft | 20 kts | 31° |
| 2026-04-30 09:20 | -5.06783 | 119.55613 | 65 ft | 19 kts | 29° |
| 2026-04-30 09:21 | -5.06700 | 119.55660 | 66 ft | 6 kts | 29° |
| 2026-04-30 09:21 | -5.06667 | 119.55688 | 66 ft | 6 kts | 59° |
| 2026-04-30 09:21 | -5.06678 | 119.55743 | 66 ft | 10 kts | 123° |
| 2026-04-30 09:21 | -5.06736 | 119.55811 | 66 ft | 14 kts | 149° |
| 2026-04-30 09:22 | -5.06824 | 119.55790 | 65 ft | 6 kts | 210° |
| 2026-04-30 09:22 | -5.06826 | 119.55788 | 65 ft | 0 kts | 210° |
| 2026-04-30 09:22 | -5.06857 | 119.55771 | 65 ft | 24 kts | 209° |
| 2026-04-30 09:22 | -5.07256 | 119.55540 | 65 ft | 104 kts | 209° |
| 2026-04-30 09:23 | -5.08094 | 119.55054 | 69 ft | 169 kts | 210° |
| 2026-04-30 09:23 | -5.09210 | 119.54400 | 536 ft | 192 kts | 212° |
| 2026-04-30 09:23 | -5.10091 | 119.53432 | 1318 ft | 203 kts | 247° |
| 2026-04-30 09:23 | -5.10179 | 119.51977 | 1933 ft | 217 kts | 283° |
| 2026-04-30 09:24 | -5.09822 | 119.50531 | 2462 ft | 228 kts | 279° |
| 2026-04-30 09:24 | -5.09680 | 119.48914 | 2966 ft | 241 kts | 269° |
| 2026-04-30 09:24 | -5.09803 | 119.47194 | 3462 ft | 256 kts | 262° |
| 2026-04-30 09:24 | -5.10100 | 119.45425 | 4208 ft | 263 kts | 259° |
| 2026-04-30 09:25 | -5.10451 | 119.43621 | 4964 ft | 270 kts | 259° |
| 2026-04-30 09:25 | -5.10812 | 119.41743 | 5633 ft | 280 kts | 259° |
| 2026-04-30 09:25 | -5.11170 | 119.39816 | 6406 ft | 286 kts | 260° |
| 2026-04-30 09:25 | -5.11528 | 119.37839 | 7186 ft | 290 kts | 260° |
| 2026-04-30 09:26 | -5.11885 | 119.35851 | 7967 ft | 293 kts | 260° |
| 2026-04-30 09:26 | -5.12248 | 119.33823 | 8753 ft | 297 kts | 260° |
| 2026-04-30 09:26 | -5.12615 | 119.31780 | 9446 ft | 302 kts | 259° |
| 2026-04-30 09:26 | -5.12988 | 119.29722 | 10184 ft | 305 kts | 259° |
| 2026-04-30 09:27 | -5.13376 | 119.27570 | 10670 ft | 319 kts | 259° |
| 2026-04-30 09:27 | -5.13775 | 119.25356 | 11076 ft | 334 kts | 259° |
| 2026-04-30 09:27 | -5.14201 | 119.23000 | 11487 ft | 348 kts | 259° |
| 2026-04-30 09:27 | -5.14642 | 119.20556 | 11866 ft | 363 kts | 259° |
| 2026-04-30 09:28 | -5.15097 | 119.18033 | 12215 ft | 377 kts | 259° |
| 2026-04-30 09:28 | -5.15575 | 119.15378 | 12509 ft | 392 kts | 259° |
| 2026-04-30 09:28 | -5.16063 | 119.12663 | 12969 ft | 401 kts | 259° |
| 2026-04-30 09:28 | -5.16556 | 119.09917 | 13623 ft | 403 kts | 259° |
| 2026-04-30 09:29 | -5.17052 | 119.07150 | 14179 ft | 408 kts | 259° |
| 2026-04-30 09:29 | -5.17558 | 119.04328 | 14767 ft | 412 kts | 259° |
| 2026-04-30 09:29 | -5.18066 | 119.01489 | 15306 ft | 416 kts | 259° |
| 2026-04-30 09:29 | -5.18576 | 118.98642 | 15854 ft | 420 kts | 259° |
| 2026-04-30 09:30 | -5.19094 | 118.95750 | 16392 ft | 424 kts | 259° |
| 2026-04-30 09:30 | -5.19617 | 118.92827 | 16947 ft | 426 kts | 259° |
| 2026-04-30 09:30 | -5.20144 | 118.89884 | 17461 ft | 430 kts | 259° |
| 2026-04-30 09:30 | -5.20675 | 118.86917 | 17961 ft | 434 kts | 259° |
| 2026-04-30 09:31 | -5.21204 | 118.83959 | 18499 ft | 436 kts | 259° |
| 2026-04-30 09:31 | -5.21739 | 118.80974 | 18961 ft | 440 kts | 259° |
| 2026-04-30 09:31 | -5.22285 | 118.77915 | 19403 ft | 444 kts | 259° |
| 2026-04-30 09:31 | -5.22832 | 118.74857 | 19847 ft | 447 kts | 259° |
| 2026-04-30 09:32 | -5.23378 | 118.71806 | 20306 ft | 450 kts | 259° |
| 2026-04-30 09:32 | -5.23935 | 118.68697 | 20705 ft | 454 kts | 259° |
| 2026-04-30 09:32 | -5.24495 | 118.65560 | 21148 ft | 457 kts | 259° |
| 2026-04-30 09:32 | -5.25057 | 118.62415 | 21575 ft | 460 kts | 259° |
| 2026-04-30 09:33 | -5.25614 | 118.59302 | 21986 ft | 462 kts | 259° |
| 2026-04-30 09:33 | -5.26186 | 118.56097 | 22342 ft | 467 kts | 259° |
| 2026-04-30 09:33 | -5.26755 | 118.52908 | 22812 ft | 468 kts | 259° |
| 2026-04-30 09:33 | -5.27329 | 118.49688 | 23225 ft | 471 kts | 259° |
| 2026-04-30 09:34 | -5.27908 | 118.46441 | 23622 ft | 474 kts | 259° |
| 2026-04-30 09:34 | -5.28486 | 118.43197 | 24079 ft | 476 kts | 259° |
| 2026-04-30 09:34 | -5.29068 | 118.39931 | 24457 ft | 479 kts | 259° |
| 2026-04-30 09:34 | -5.29659 | 118.36613 | 24857 ft | 482 kts | 259° |
| 2026-04-30 09:35 | -5.30242 | 118.33336 | 25229 ft | 485 kts | 260° |
| 2026-04-30 09:35 | -5.30836 | 118.29998 | 25624 ft | 487 kts | 260° |
| 2026-04-30 09:35 | -5.31430 | 118.26657 | 25939 ft | 491 kts | 260° |
| 2026-04-30 09:35 | -5.32029 | 118.23289 | 26376 ft | 491 kts | 260° |
| 2026-04-30 09:36 | -5.32632 | 118.19898 | 26734 ft | 494 kts | 260° |
| 2026-04-30 09:36 | -5.33238 | 118.16485 | 27083 ft | 496 kts | 260° |
| 2026-04-30 09:36 | -5.33841 | 118.13092 | 27404 ft | 499 kts | 260° |
| 2026-04-30 09:36 | -5.34445 | 118.09689 | 27898 ft | 497 kts | 260° |
| 2026-04-30 09:37 | -5.35046 | 118.06305 | 28423 ft | 495 kts | 260° |
| 2026-04-30 09:37 | -5.35651 | 118.02893 | 28979 ft | 492 kts | 260° |
| 2026-04-30 09:37 | -5.36242 | 117.99565 | 29524 ft | 489 kts | 261° |
| 2026-04-30 09:37 | -5.36838 | 117.96204 | 30028 ft | 486 kts | 261° |
| 2026-04-30 09:38 | -5.37423 | 117.92906 | 30500 ft | 484 kts | 261° |
| 2026-04-30 09:38 | -5.38012 | 117.89581 | 31005 ft | 481 kts | 261° |
| 2026-04-30 09:38 | -5.38599 | 117.86271 | 31454 ft | 479 kts | 261° |
| 2026-04-30 09:38 | -5.39175 | 117.83018 | 31854 ft | 478 kts | 261° |
| 2026-04-30 09:39 | -5.39758 | 117.79725 | 32275 ft | 476 kts | 261° |
| 2026-04-30 09:39 | -5.40331 | 117.76491 | 32686 ft | 475 kts | 261° |
| 2026-04-30 09:39 | -5.40912 | 117.73205 | 33124 ft | 474 kts | 261° |
| 2026-04-30 09:39 | -5.41484 | 117.69969 | 33608 ft | 471 kts | 261° |
| 2026-04-30 09:40 | -5.42052 | 117.66752 | 33987 ft | 470 kts | 261° |
| 2026-04-30 09:40 | -5.42620 | 117.63530 | 34005 ft | 472 kts | 261° |
| 2026-04-30 09:40 | -5.43762 | 117.57076 | 34005 ft | 469 kts | 261° |
| 2026-04-30 09:41 | -5.44898 | 117.50643 | 34004 ft | 470 kts | 261° |
| 2026-04-30 09:41 | -5.46031 | 117.44220 | 33999 ft | 470 kts | 261° |
| 2026-04-30 09:42 | -5.47165 | 117.37786 | 33991 ft | 470 kts | 261° |
| 2026-04-30 09:42 | -5.48305 | 117.31324 | 33988 ft | 470 kts | 261° |
| 2026-04-30 09:43 | -5.49446 | 117.24848 | 33983 ft | 470 kts | 261° |
| 2026-04-30 09:43 | -5.50579 | 117.18413 | 33984 ft | 471 kts | 261° |
| 2026-04-30 09:44 | -5.51714 | 117.11958 | 33985 ft | 471 kts | 261° |
| 2026-04-30 09:44 | -5.52852 | 117.05509 | 33984 ft | 471 kts | 261° |
| 2026-04-30 09:45 | -5.54092 | 116.99065 | 33983 ft | 471 kts | 259° |
| 2026-04-30 09:45 | -5.55392 | 116.92640 | 33987 ft | 471 kts | 259° |
| 2026-04-30 09:46 | -5.56696 | 116.86205 | 33985 ft | 472 kts | 260° |
| 2026-04-30 09:46 | -5.57987 | 116.79781 | 33985 ft | 471 kts | 260° |
| 2026-04-30 09:47 | -5.59276 | 116.73325 | 33984 ft | 471 kts | 260° |
| 2026-04-30 09:47 | -5.60550 | 116.66913 | 33984 ft | 471 kts | 259° |
| 2026-04-30 09:48 | -5.61822 | 116.60498 | 33985 ft | 471 kts | 260° |
| 2026-04-30 09:48 | -5.63105 | 116.54016 | 33985 ft | 471 kts | 260° |
| 2026-04-30 09:49 | -5.64171 | 116.47568 | 33985 ft | 470 kts | 263° |
| 2026-04-30 09:49 | -5.65058 | 116.41072 | 33990 ft | 470 kts | 263° |
| 2026-04-30 09:50 | -5.65923 | 116.34608 | 33995 ft | 470 kts | 263° |
| 2026-04-30 09:50 | -5.66815 | 116.28089 | 33999 ft | 470 kts | 263° |
| 2026-04-30 09:51 | -5.67717 | 116.21632 | 34001 ft | 470 kts | 263° |
| 2026-04-30 09:51 | -5.68637 | 116.15114 | 33998 ft | 470 kts | 263° |
| 2026-04-30 09:52 | -5.69557 | 116.08633 | 34001 ft | 471 kts | 263° |
| 2026-04-30 09:52 | -5.70480 | 116.02134 | 34002 ft | 471 kts | 263° |
| 2026-04-30 09:53 | -5.71399 | 115.95661 | 34005 ft | 472 kts | 263° |
| 2026-04-30 09:53 | -5.72324 | 115.89139 | 34005 ft | 471 kts | 263° |
| 2026-04-30 09:54 | -5.73245 | 115.82645 | 34005 ft | 470 kts | 263° |
| 2026-04-30 09:54 | -5.74163 | 115.76163 | 34004 ft | 470 kts | 263° |
| 2026-04-30 09:55 | -5.75080 | 115.69690 | 34007 ft | 470 kts | 263° |
| 2026-04-30 09:55 | -5.76002 | 115.63173 | 34005 ft | 470 kts | 263° |
| 2026-04-30 09:56 | -5.76916 | 115.56704 | 34006 ft | 471 kts | 263° |
| 2026-04-30 09:56 | -5.77833 | 115.50208 | 34004 ft | 470 kts | 263° |
| 2026-04-30 09:57 | -5.78752 | 115.43700 | 34006 ft | 470 kts | 263° |
| 2026-04-30 09:57 | -5.79664 | 115.37228 | 34006 ft | 470 kts | 263° |
| 2026-04-30 09:58 | -5.80581 | 115.30719 | 34005 ft | 470 kts | 263° |
| 2026-04-30 09:58 | -5.81489 | 115.24265 | 34003 ft | 471 kts | 263° |
| 2026-04-30 09:59 | -5.83321 | 115.11229 | 33997 ft | 471 kts | 263° |
| 2026-04-30 10:00 | -5.84769 | 115.01505 | 33999 ft | 470 kts | 261° |
| 2026-04-30 10:01 | -5.86547 | 114.91868 | 33989 ft | 470 kts | 260° |
| 2026-04-30 10:02 | -5.88353 | 114.82194 | 33987 ft | 471 kts | 260° |
| 2026-04-30 10:02 | -5.89536 | 114.75735 | 33992 ft | 471 kts | 260° |
| 2026-04-30 10:03 | -5.90710 | 114.69270 | 34001 ft | 472 kts | 261° |
| 2026-04-30 10:03 | -5.91875 | 114.62825 | 34002 ft | 472 kts | 261° |
| 2026-04-30 10:04 | -5.93048 | 114.56319 | 34001 ft | 471 kts | 261° |
| 2026-04-30 10:04 | -5.94211 | 114.49860 | 34004 ft | 471 kts | 260° |
| 2026-04-30 10:05 | -5.95371 | 114.43413 | 34005 ft | 471 kts | 260° |
| 2026-04-30 10:05 | -5.96530 | 114.36974 | 34003 ft | 472 kts | 260° |
| 2026-04-30 10:06 | -5.97696 | 114.30492 | 34004 ft | 472 kts | 260° |
| 2026-04-30 10:06 | -5.98864 | 114.23994 | 34004 ft | 472 kts | 260° |
| 2026-04-30 10:07 | -6.00021 | 114.17548 | 34005 ft | 471 kts | 260° |
| 2026-04-30 10:07 | -6.01184 | 114.11063 | 34005 ft | 471 kts | 260° |
| 2026-04-30 10:08 | -6.02342 | 114.04607 | 33990 ft | 472 kts | 260° |
| 2026-04-30 10:08 | -6.02922 | 114.01372 | 33839 ft | 472 kts | 260° |
| 2026-04-30 10:08 | -6.03501 | 113.98141 | 33843 ft | 471 kts | 260° |
| 2026-04-30 10:09 | -6.04660 | 113.91667 | 33844 ft | 474 kts | 260° |
| 2026-04-30 10:09 | -6.05820 | 113.85184 | 33843 ft | 473 kts | 260° |
| 2026-04-30 10:10 | -6.06984 | 113.78674 | 33845 ft | 474 kts | 260° |
| 2026-04-30 10:10 | -6.08141 | 113.72193 | 33843 ft | 474 kts | 260° |
| 2026-04-30 10:11 | -6.09307 | 113.65660 | 33845 ft | 474 kts | 260° |
| 2026-04-30 10:11 | -6.10470 | 113.59148 | 33844 ft | 474 kts | 260° |
| 2026-04-30 10:12 | -6.11626 | 113.52664 | 33847 ft | 475 kts | 260° |
| 2026-04-30 10:12 | -6.12784 | 113.46159 | 33848 ft | 473 kts | 260° |
| 2026-04-30 10:13 | -6.13942 | 113.39652 | 33847 ft | 474 kts | 260° |
| 2026-04-30 10:13 | -6.15102 | 113.33137 | 33852 ft | 475 kts | 260° |
| 2026-04-30 10:14 | -6.16259 | 113.26627 | 33857 ft | 474 kts | 260° |
| 2026-04-30 10:14 | -6.18003 | 113.16809 | 33863 ft | 476 kts | 260° |
| 2026-04-30 10:15 | -6.19156 | 113.10311 | 33863 ft | 475 kts | 260° |
| 2026-04-30 10:15 | -6.20316 | 113.03773 | 33865 ft | 474 kts | 260° |
| 2026-04-30 10:16 | -6.21471 | 112.97256 | 33863 ft | 475 kts | 260° |
| 2026-04-30 10:17 | -6.23188 | 112.87554 | 33863 ft | 477 kts | 260° |
| 2026-04-30 10:17 | -6.24917 | 112.77772 | 33856 ft | 476 kts | 260° |
| 2026-04-30 10:18 | -6.26073 | 112.71229 | 33850 ft | 476 kts | 259° |
| 2026-04-30 10:19 | -6.27810 | 112.61429 | 33846 ft | 476 kts | 259° |
| 2026-04-30 10:19 | -6.29378 | 112.54976 | 33851 ft | 478 kts | 252° |
| 2026-04-30 10:20 | -6.31492 | 112.48668 | 33851 ft | 477 kts | 250° |
| 2026-04-30 10:20 | -6.34868 | 112.39297 | 33850 ft | 477 kts | 250° |
| 2026-04-30 10:21 | -6.37111 | 112.32997 | 33852 ft | 478 kts | 250° |
| 2026-04-30 10:21 | -6.39314 | 112.26711 | 33856 ft | 478 kts | 250° |
| 2026-04-30 10:22 | -6.41503 | 112.20418 | 33860 ft | 478 kts | 250° |
| 2026-04-30 10:22 | -6.43688 | 112.14109 | 33860 ft | 477 kts | 250° |
| 2026-04-30 10:23 | -6.45860 | 112.07832 | 33862 ft | 478 kts | 250° |
| 2026-04-30 10:23 | -6.48036 | 112.01537 | 33864 ft | 478 kts | 250° |
| 2026-04-30 10:24 | -6.50220 | 111.95215 | 33865 ft | 478 kts | 250° |
| 2026-04-30 10:24 | -6.52393 | 111.88918 | 33865 ft | 478 kts | 250° |
| 2026-04-30 10:25 | -6.54571 | 111.82607 | 33861 ft | 479 kts | 250° |
| 2026-04-30 10:25 | -6.56746 | 111.76312 | 33867 ft | 480 kts | 250° |
| 2026-04-30 10:26 | -6.58935 | 111.69970 | 33867 ft | 479 kts | 250° |
| 2026-04-30 10:26 | -6.61109 | 111.63669 | 33867 ft | 479 kts | 250° |
| 2026-04-30 10:27 | -6.63206 | 111.57333 | 33871 ft | 478 kts | 252° |
| 2026-04-30 10:27 | -6.65077 | 111.50890 | 33878 ft | 479 kts | 253° |
| 2026-04-30 10:28 | -6.66886 | 111.44472 | 33879 ft | 479 kts | 252° |
| 2026-04-30 10:28 | -6.68231 | 111.41437 | 33877 ft | 477 kts | 236° |
| 2026-04-30 10:28 | -6.70392 | 111.38926 | 33888 ft | 476 kts | 221° |
| 2026-04-30 10:29 | -6.75580 | 111.34733 | 33875 ft | 477 kts | 216° |
| 2026-04-30 10:29 | -6.80865 | 111.30756 | 33875 ft | 476 kts | 216° |
| 2026-04-30 10:30 | -6.86165 | 111.26707 | 33873 ft | 476 kts | 217° |
| 2026-04-30 10:30 | -6.91391 | 111.22625 | 33876 ft | 477 kts | 217° |
| 2026-04-30 10:31 | -6.96610 | 111.18495 | 33876 ft | 476 kts | 218° |
| 2026-04-30 10:31 | -7.01828 | 111.14342 | 33876 ft | 476 kts | 218° |
| 2026-04-30 10:32 | -7.07036 | 111.10187 | 33876 ft | 479 kts | 218° |
| 2026-04-30 10:32 | -7.12242 | 111.06029 | 33881 ft | 478 kts | 218° |
| 2026-04-30 10:33 | -7.17473 | 111.01852 | 33879 ft | 478 kts | 218° |
| 2026-04-30 10:33 | -7.22675 | 110.97701 | 33885 ft | 478 kts | 218° |
| 2026-04-30 10:34 | -7.27873 | 110.93544 | 33887 ft | 477 kts | 218° |
| 2026-04-30 10:34 | -7.33106 | 110.89361 | 33892 ft | 479 kts | 218° |
| 2026-04-30 10:35 | -7.38318 | 110.85193 | 33903 ft | 477 kts | 218° |
| 2026-04-30 10:35 | -7.43546 | 110.81008 | 33903 ft | 478 kts | 218° |
| 2026-04-30 10:36 | -7.48763 | 110.76829 | 33878 ft | 476 kts | 219° |
| 2026-04-30 10:36 | -7.51250 | 110.74651 | 33446 ft | 472 kts | 223° |
| 2026-04-30 10:36 | -7.53569 | 110.72330 | 32888 ft | 468 kts | 226° |
| 2026-04-30 10:37 | -7.55754 | 110.69944 | 32218 ft | 468 kts | 228° |
| 2026-04-30 10:37 | -7.57902 | 110.67485 | 31493 ft | 469 kts | 229° |
| 2026-04-30 10:37 | -7.60040 | 110.64984 | 30685 ft | 472 kts | 229° |
| 2026-04-30 10:37 | -7.62220 | 110.62469 | 29809 ft | 476 kts | 226° |
| 2026-04-30 10:38 | -7.64544 | 110.60105 | 28885 ft | 480 kts | 223° |
| 2026-04-30 10:38 | -7.66983 | 110.57816 | 27923 ft | 476 kts | 221° |
| 2026-04-30 10:38 | -7.69400 | 110.55620 | 27005 ft | 469 kts | 221° |
| 2026-04-30 10:38 | -7.71808 | 110.53459 | 26262 ft | 458 kts | 220° |
| 2026-04-30 10:39 | -7.74231 | 110.51293 | 25625 ft | 467 kts | 220° |
| 2026-04-30 10:39 | -7.76665 | 110.49122 | 24930 ft | 476 kts | 220° |
| 2026-04-30 10:39 | -7.79157 | 110.46897 | 24273 ft | 470 kts | 220° |
| 2026-04-30 10:39 | -7.81563 | 110.44748 | 23692 ft | 454 kts | 220° |
| 2026-04-30 10:40 | -7.83874 | 110.42680 | 23199 ft | 438 kts | 220° |
| 2026-04-30 10:40 | -7.86154 | 110.40636 | 22774 ft | 442 kts | 220° |
| 2026-04-30 10:40 | -7.88492 | 110.38543 | 22374 ft | 449 kts | 220° |
| 2026-04-30 10:40 | -7.90820 | 110.36459 | 21853 ft | 456 kts | 220° |
| 2026-04-30 10:41 | -7.93156 | 110.34368 | 21445 ft | 441 kts | 220° |
| 2026-04-30 10:41 | -7.95412 | 110.32346 | 21092 ft | 422 kts | 221° |
| 2026-04-30 10:41 | -7.97617 | 110.30368 | 20796 ft | 424 kts | 221° |
| 2026-04-30 10:41 | -7.99833 | 110.28382 | 20477 ft | 432 kts | 220° |
| 2026-04-30 10:42 | -8.02100 | 110.26346 | 19894 ft | 439 kts | 221° |
| 2026-04-30 10:42 | -8.04345 | 110.24328 | 19298 ft | 432 kts | 220° |
| 2026-04-30 10:42 | -8.06556 | 110.22337 | 18683 ft | 417 kts | 221° |
| 2026-04-30 10:42 | -8.08671 | 110.20428 | 18090 ft | 405 kts | 220° |
| 2026-04-30 10:43 | -8.10744 | 110.18555 | 17482 ft | 399 kts | 220° |
| 2026-04-30 10:43 | -8.12830 | 110.16669 | 16878 ft | 397 kts | 220° |
| 2026-04-30 10:43 | -8.14868 | 110.14823 | 16277 ft | 392 kts | 220° |
| 2026-04-30 10:43 | -8.16844 | 110.13029 | 15676 ft | 380 kts | 220° |
| 2026-04-30 10:44 | -8.18783 | 110.11262 | 15073 ft | 370 kts | 220° |
| 2026-04-30 10:44 | -8.20664 | 110.09541 | 14467 ft | 361 kts | 220° |
| 2026-04-30 10:44 | -8.22485 | 110.07870 | 13866 ft | 353 kts | 220° |
| 2026-04-30 10:44 | -8.24284 | 110.06211 | 13257 ft | 346 kts | 220° |
| 2026-04-30 10:45 | -8.26051 | 110.04575 | 12638 ft | 340 kts | 221° |
| 2026-04-30 10:45 | -8.27773 | 110.02983 | 12029 ft | 335 kts | 221° |
| 2026-04-30 10:45 | -8.29472 | 110.01415 | 11417 ft | 330 kts | 221° |
| 2026-04-30 10:45 | -8.31084 | 109.99777 | 10811 ft | 331 kts | 233° |
| 2026-04-30 10:46 | -8.31997 | 109.97678 | 10177 ft | 330 kts | 261° |
| 2026-04-30 10:46 | -8.31832 | 109.95418 | 9652 ft | 322 kts | 291° |
| 2026-04-30 10:46 | -8.30715 | 109.93536 | 9111 ft | 314 kts | 313° |
| 2026-04-30 10:46 | -8.29180 | 109.91998 | 8612 ft | 306 kts | 319° |
| 2026-04-30 10:47 | -8.27615 | 109.90603 | 8141 ft | 299 kts | 320° |
| 2026-04-30 10:47 | -8.25929 | 109.89442 | 7944 ft | 284 kts | 342° |
| 2026-04-30 10:47 | -8.24011 | 109.89098 | 7981 ft | 278 kts | 0° |
| 2026-04-30 10:47 | -8.22088 | 109.89112 | 7971 ft | 277 kts | 4° |
| 2026-04-30 10:48 | -8.20156 | 109.89171 | 7971 ft | 277 kts | 3° |
| 2026-04-30 10:48 | -8.18212 | 109.89202 | 7835 ft | 280 kts | 3° |
| 2026-04-30 10:48 | -8.16253 | 109.89226 | 7320 ft | 279 kts | 2° |
| 2026-04-30 10:48 | -8.14309 | 109.89251 | 6858 ft | 275 kts | 3° |
| 2026-04-30 10:49 | -8.12397 | 109.89281 | 6425 ft | 271 kts | 3° |
| 2026-04-30 10:49 | -8.10545 | 109.89311 | 6000 ft | 266 kts | 4° |
| 2026-04-30 10:49 | -8.08703 | 109.89344 | 5570 ft | 263 kts | 3° |
| 2026-04-30 10:49 | -8.06868 | 109.89377 | 5136 ft | 260 kts | 3° |
| 2026-04-30 10:50 | -8.05051 | 109.89410 | 4703 ft | 257 kts | 4° |
| 2026-04-30 10:50 | -8.03299 | 109.89441 | 4363 ft | 251 kts | 4° |
| 2026-04-30 10:50 | -8.01566 | 109.89470 | 4094 ft | 243 kts | 4° |
| 2026-04-30 10:50 | -7.99897 | 109.89496 | 3867 ft | 234 kts | 3° |
| 2026-04-30 10:51 | -7.98278 | 109.89424 | 3691 ft | 233 kts | 357° |
| 2026-04-30 10:51 | -7.96577 | 109.89237 | 3706 ft | 254 kts | 356° |
| 2026-04-30 10:51 | -7.94779 | 109.89037 | 3738 ft | 261 kts | 356° |
| 2026-04-30 10:51 | -7.92974 | 109.88854 | 3702 ft | 257 kts | 357° |
| 2026-04-30 10:52 | -7.91173 | 109.88686 | 3311 ft | 263 kts | 358° |
| 2026-04-30 10:52 | -7.89350 | 109.88731 | 2882 ft | 264 kts | 13° |
| 2026-04-30 10:52 | -7.87735 | 109.89479 | 2504 ft | 249 kts | 44° |
| 2026-04-30 10:52 | -7.86681 | 109.90770 | 2133 ft | 231 kts | 59° |
| 2026-04-30 10:53 | -7.86122 | 109.92141 | 1979 ft | 189 kts | 81° |
| 2026-04-30 10:53 | -7.86116 | 109.93344 | 1865 ft | 157 kts | 98° |
| 2026-04-30 10:53 | -7.86377 | 109.94359 | 1844 ft | 145 kts | 108° |
| 2026-04-30 10:53 | -7.86699 | 109.95303 | 1822 ft | 142 kts | 109° |
| 2026-04-30 10:54 | -7.87032 | 109.96238 | 1652 ft | 139 kts | 108° |
| 2026-04-30 10:54 | -7.87359 | 109.97169 | 1294 ft | 140 kts | 111° |
| 2026-04-30 10:54 | -7.87709 | 109.98077 | 1002 ft | 139 kts | 109° |
| 2026-04-30 10:54 | -7.88018 | 109.99016 | 795 ft | 150 kts | 108° |
| 2026-04-30 10:55 | -7.88386 | 109.99970 | 713 ft | 145 kts | 114° |
| 2026-04-30 10:55 | -7.88760 | 110.00927 | 593 ft | 149 kts | 110° |
| 2026-04-30 10:55 | -7.89112 | 110.01884 | 446 ft | 148 kts | 110° |
| 2026-04-30 10:55 | -7.89471 | 110.02865 | 310 ft | 146 kts | 110° |
| 2026-04-30 10:56 | -7.89822 | 110.03814 | 156 ft | 144 kts | 110° |
| 2026-04-30 10:56 | -7.90175 | 110.04767 | 32 ft | 146 kts | 111° |
| 2026-04-30 10:56 | -7.90526 | 110.05701 | 31 ft | 125 kts | 108° |
| 2026-04-30 10:56 | -7.90729 | 110.06269 | 31 ft | 56 kts | 110° |
| 2026-04-30 10:57 | -7.90846 | 110.06587 | 31 ft | 45 kts | 111° |
| 2026-04-30 10:57 | -7.90932 | 110.06831 | 31 ft | 31 kts | 110° |
| 2026-04-30 10:57 | -7.90958 | 110.06995 | 31 ft | 18 kts | 75° |
| 2026-04-30 10:57 | -7.90921 | 110.07090 | 31 ft | 11 kts | 66° |
| 2026-04-30 10:58 | -7.90856 | 110.07104 | 31 ft | 10 kts | 319° |
| 2026-04-30 10:58 | -7.90824 | 110.07039 | 31 ft | 11 kts | 291° |
| 2026-04-30 10:58 | -7.90792 | 110.06953 | 31 ft | 14 kts | 290° |
| 2026-04-30 10:58 | -7.90753 | 110.06842 | 31 ft | 18 kts | 289° |
| 2026-04-30 10:59 | -7.90705 | 110.06708 | 31 ft | 22 kts | 290° |
| 2026-04-30 10:59 | -7.90655 | 110.06575 | 31 ft | 8 kts | 290° |
| 2026-04-30 10:59 | -7.90639 | 110.06529 | 31 ft | 8 kts | 289° |
| 2026-04-30 10:59 | -7.90588 | 110.06487 | 31 ft | 12 kts | 5° |
| 2026-04-30 11:00 | -7.90494 | 110.06516 | 31 ft | 15 kts | 9° |
| 2026-04-30 11:00 | -7.90429 | 110.06448 | 31 ft | 16 kts | 291° |
| 2026-04-30 11:00 | -7.90386 | 110.06335 | 31 ft | 18 kts | 290° |
| 2026-04-30 11:00 | -7.90338 | 110.06205 | 31 ft | 20 kts | 291° |
| 2026-04-30 11:01 | -7.90286 | 110.06070 | 31 ft | 20 kts | 290° |
| 2026-04-30 11:01 | -7.90261 | 110.06008 | 31 ft | 3 kts | 316° |
| 2026-04-30 11:01 | -7.90240 | 110.06010 | 31 ft | 4 kts | 13° |
| 2026-04-30 11:01 | -7.90182 | 110.06032 | 31 ft | 6 kts | 21° |
| 2026-04-30 11:02 | -7.90165 | 110.06038 | 31 ft | 0 kts | 19° |